sensor_id;sensor_type;location;lat;lon;timestamp;temperature;humidity
57719;DHT22;43561;50.090;18.522;2023-12-20T00:06:08;6.80;80.00
57719;DHT22;43561;50.090;18.522;2023-12-20T00:16:10;6.70;79.30
57719;DHT22;43561;50.090;18.522;2023-12-20T00:26:12;6.60;81.00
57719;DHT22;43561;50.090;18.522;2023-12-20T00:36:14;6.60;77.30
57719;DHT22;43561;50.090;18.522;2023-12-20T00:46:16;6.50;77.90
57719;DHT22;43561;50.090;18.522;2023-12-20T00:56:18;6.40;80.20
57719;DHT22;43561;50.090;18.522;2023-12-20T01:06:21;6.30;84.70
57719;DHT22;43561;50.090;18.522;2023-12-20T01:16:23;6.20;88.60
57719;DHT22;43561;50.090;18.522;2023-12-20T01:26:25;6.10;90.00
57719;DHT22;43561;50.090;18.522;2023-12-20T01:36:27;6.10;90.70
57719;DHT22;43561;50.090;18.522;2023-12-20T01:46:29;6.00;91.60
57719;DHT22;43561;50.090;18.522;2023-12-20T01:56:31;6.00;92.70
57719;DHT22;43561;50.090;18.522;2023-12-20T02:06:34;6.00;93.00
57719;DHT22;43561;50.090;18.522;2023-12-20T02:16:36;6.00;93.00
57719;DHT22;43561;50.090;18.522;2023-12-20T02:26:38;5.90;93.50
57719;DHT22;43561;50.090;18.522;2023-12-20T02:36:40;5.90;93.00
57719;DHT22;43561;50.090;18.522;2023-12-20T02:46:44;5.80;94.20
57719;DHT22;43561;50.090;18.522;2023-12-20T02:56:48;5.70;99.60
57719;DHT22;43561;50.090;18.522;2023-12-20T03:06:50;5.30;99.90
57719;DHT22;43561;50.090;18.522;2023-12-20T03:16:52;5.10;99.90
57719;DHT22;43561;50.090;18.522;2023-12-20T03:26:54;4.70;99.90
57719;DHT22;43561;50.090;18.522;2023-12-20T03:36:56;4.50;99.90
57719;DHT22;43561;50.090;18.522;2023-12-20T03:46:58;4.40;99.90
57719;DHT22;43561;50.090;18.522;2023-12-20T03:57:00;4.30;99.90
57719;DHT22;43561;50.090;18.522;2023-12-20T04:07:02;4.20;99.90
57719;DHT22;43561;50.090;18.522;2023-12-20T04:17:04;4.20;99.90
57719;DHT22;43561;50.090;18.522;2023-12-20T04:27:06;4.10;99.90
57719;DHT22;43561;50.090;18.522;2023-12-20T04:37:08;4.20;99.90
57719;DHT22;43561;50.090;18.522;2023-12-20T04:47:10;4.10;99.90
57719;DHT22;43561;50.090;18.522;2023-12-20T04:57:15;4.10;99.90
57719;DHT22;43561;50.090;18.522;2023-12-20T05:07:17;4.10;99.90
57719;DHT22;43561;50.090;18.522;2023-12-20T05:17:19;4.00;99.90
57719;DHT22;43561;50.090;18.522;2023-12-20T05:27:21;4.00;99.90
57719;DHT22;43561;50.090;18.522;2023-12-20T05:37:22;4.00;99.90
57719;DHT22;43561;50.090;18.522;2023-12-20T05:47:24;4.10;99.90
57719;DHT22;43561;50.090;18.522;2023-12-20T05:57:27;4.00;99.90
57719;DHT22;43561;50.090;18.522;2023-12-20T06:07:29;4.00;99.90
57719;DHT22;43561;50.090;18.522;2023-12-20T06:17:31;3.90;99.90
57719;DHT22;43561;50.090;18.522;2023-12-20T06:27:33;4.00;99.90
57719;DHT22;43561;50.090;18.522;2023-12-20T06:37:35;3.90;99.90
57719;DHT22;43561;50.090;18.522;2023-12-20T06:47:37;3.90;99.90
57719;DHT22;43561;50.090;18.522;2023-12-20T06:57:39;3.90;99.90
57719;DHT22;43561;50.090;18.522;2023-12-20T07:07:41;4.00;99.90
57719;DHT22;43561;50.090;18.522;2023-12-20T07:17:43;4.00;99.90
57719;DHT22;43561;50.090;18.522;2023-12-20T07:27:45;4.00;99.90
57719;DHT22;43561;50.090;18.522;2023-12-20T07:37:48;3.90;99.90
57719;DHT22;43561;50.090;18.522;2023-12-20T07:47:50;3.90;99.90
57719;DHT22;43561;50.090;18.522;2023-12-20T07:57:52;3.90;99.90
57719;DHT22;43561;50.090;18.522;2023-12-20T08:07:54;3.90;99.90
57719;DHT22;43561;50.090;18.522;2023-12-20T08:17:56;3.90;99.90
57719;DHT22;43561;50.090;18.522;2023-12-20T08:27:58;4.00;99.90
57719;DHT22;43561;50.090;18.522;2023-12-20T08:38:00;3.90;99.90
57719;DHT22;43561;50.090;18.522;2023-12-20T08:48:03;4.00;99.90
57719;DHT22;43561;50.090;18.522;2023-12-20T08:58:08;4.00;99.90
57719;DHT22;43561;50.090;18.522;2023-12-20T09:08:11;4.00;99.90
57719;DHT22;43561;50.090;18.522;2023-12-20T09:18:12;3.90;99.90
57719;DHT22;43561;50.090;18.522;2023-12-20T09:28:14;3.80;99.90
57719;DHT22;43561;50.090;18.522;2023-12-20T09:38:16;4.20;99.90
57719;DHT22;43561;50.090;18.522;2023-12-20T09:48:19;4.00;99.90
57719;DHT22;43561;50.090;18.522;2023-12-20T09:58:21;3.80;99.90
57719;DHT22;43561;50.090;18.522;2023-12-20T10:08:24;3.80;99.90
57719;DHT22;43561;50.090;18.522;2023-12-20T10:18:29;3.90;99.90
57719;DHT22;43561;50.090;18.522;2023-12-20T10:28:40;3.90;99.90
57719;DHT22;43561;50.090;18.522;2023-12-20T10:38:42;4.00;99.90
57719;DHT22;43561;50.090;18.522;2023-12-20T10:48:45;4.00;99.90
57719;DHT22;43561;50.090;18.522;2023-12-20T10:58:49;4.10;99.90
57719;DHT22;43561;50.090;18.522;2023-12-20T11:19:16;4.20;99.90
57719;DHT22;43561;50.090;18.522;2023-12-20T11:29:35;4.20;99.90
57719;DHT22;43561;50.090;18.522;2023-12-20T11:39:37;4.30;99.90
57719;DHT22;43561;50.090;18.522;2023-12-20T11:49:39;5.70;99.90
57719;DHT22;43561;50.090;18.522;2023-12-20T11:59:42;4.60;99.90
57719;DHT22;43561;50.090;18.522;2023-12-20T12:09:45;4.60;99.90
57719;DHT22;43561;50.090;18.522;2023-12-20T12:19:47;4.80;99.90
57719;DHT22;43561;50.090;18.522;2023-12-20T12:30:03;4.70;99.90
57719;DHT22;43561;50.090;18.522;2023-12-20T12:40:09;4.80;99.90
57719;DHT22;43561;50.090;18.522;2023-12-20T12:50:11;4.80;99.90
57719;DHT22;43561;50.090;18.522;2023-12-20T13:00:13;4.80;99.90
57719;DHT22;43561;50.090;18.522;2023-12-20T13:10:15;4.70;99.90
57719;DHT22;43561;50.090;18.522;2023-12-20T13:20:17;4.70;99.90
57719;DHT22;43561;50.090;18.522;2023-12-20T13:30:20;4.70;99.90
57719;DHT22;43561;50.090;18.522;2023-12-20T13:40:22;4.70;99.90
57719;DHT22;43561;50.090;18.522;2023-12-20T13:50:24;4.60;99.90
57719;DHT22;43561;50.090;18.522;2023-12-20T14:00:26;4.70;99.90
57719;DHT22;43561;50.090;18.522;2023-12-20T14:10:28;4.80;99.90
57719;DHT22;43561;50.090;18.522;2023-12-20T14:20:30;4.70;99.90
57719;DHT22;43561;50.090;18.522;2023-12-20T14:30:32;4.70;99.90
57719;DHT22;43561;50.090;18.522;2023-12-20T14:40:34;4.30;99.90
57719;DHT22;43561;50.090;18.522;2023-12-20T14:50:36;4.10;99.90
57719;DHT22;43561;50.090;18.522;2023-12-20T15:00:38;4.10;99.90
57719;DHT22;43561;50.090;18.522;2023-12-20T15:10:40;4.10;99.90
57719;DHT22;43561;50.090;18.522;2023-12-20T15:20:42;4.10;99.90
57719;DHT22;43561;50.090;18.522;2023-12-20T15:30:44;4.10;99.90
57719;DHT22;43561;50.090;18.522;2023-12-20T15:40:46;4.10;99.90
57719;DHT22;43561;50.090;18.522;2023-12-20T15:50:48;4.10;99.90
57719;DHT22;43561;50.090;18.522;2023-12-20T16:00:51;4.10;99.90
57719;DHT22;43561;50.090;18.522;2023-12-20T16:10:53;4.10;99.90
57719;DHT22;43561;50.090;18.522;2023-12-20T16:20:55;4.00;99.90
57719;DHT22;43561;50.090;18.522;2023-12-20T16:30:57;3.90;99.90
57719;DHT22;43561;50.090;18.522;2023-12-20T16:40:59;3.80;99.90
57719;DHT22;43561;50.090;18.522;2023-12-20T16:51:04;3.70;99.90
57719;DHT22;43561;50.090;18.522;2023-12-20T17:01:06;3.60;99.90
57719;DHT22;43561;50.090;18.522;2023-12-20T17:11:12;3.70;99.90
57719;DHT22;43561;50.090;18.522;2023-12-20T17:21:16;3.80;99.90
57719;DHT22;43561;50.090;18.522;2023-12-20T17:31:18;3.80;99.90
57719;DHT22;43561;50.090;18.522;2023-12-20T17:41:20;3.90;99.90
57719;DHT22;43561;50.090;18.522;2023-12-20T17:51:22;3.80;99.90
57719;DHT22;43561;50.090;18.522;2023-12-20T18:01:24;3.90;99.90
57719;DHT22;43561;50.090;18.522;2023-12-20T18:11:26;3.90;99.90
57719;DHT22;43561;50.090;18.522;2023-12-20T18:21:29;3.90;99.90
57719;DHT22;43561;50.090;18.522;2023-12-20T18:31:31;3.90;99.90
57719;DHT22;43561;50.090;18.522;2023-12-20T18:41:33;3.90;99.90
57719;DHT22;43561;50.090;18.522;2023-12-20T18:51:35;3.90;99.90
57719;DHT22;43561;50.090;18.522;2023-12-20T19:01:37;3.80;99.90
57719;DHT22;43561;50.090;18.522;2023-12-20T19:11:40;3.70;99.90
57719;DHT22;43561;50.090;18.522;2023-12-20T19:21:42;3.60;99.90
57719;DHT22;43561;50.090;18.522;2023-12-20T19:31:44;3.50;99.90
57719;DHT22;43561;50.090;18.522;2023-12-20T19:41:46;3.40;99.90
57719;DHT22;43561;50.090;18.522;2023-12-20T19:51:48;3.40;99.90
57719;DHT22;43561;50.090;18.522;2023-12-20T20:01:50;3.30;99.90
57719;DHT22;43561;50.090;18.522;2023-12-20T20:11:52;3.20;99.90
57719;DHT22;43561;50.090;18.522;2023-12-20T20:21:54;3.10;99.90
57719;DHT22;43561;50.090;18.522;2023-12-20T20:31:56;3.00;99.90
57719;DHT22;43561;50.090;18.522;2023-12-20T20:41:59;3.10;99.90
57719;DHT22;43561;50.090;18.522;2023-12-20T20:52:00;3.10;99.90
57719;DHT22;43561;50.090;18.522;2023-12-20T21:02:02;3.20;99.90
57719;DHT22;43561;50.090;18.522;2023-12-20T21:12:05;3.10;99.90
57719;DHT22;43561;50.090;18.522;2023-12-20T21:22:07;3.10;99.90
57719;DHT22;43561;50.090;18.522;2023-12-20T21:32:09;3.30;99.90
57719;DHT22;43561;50.090;18.522;2023-12-20T21:42:11;3.40;99.90
57719;DHT22;43561;50.090;18.522;2023-12-20T21:52:13;3.40;99.90
57719;DHT22;43561;50.090;18.522;2023-12-20T22:02:18;3.40;99.90
57719;DHT22;43561;50.090;18.522;2023-12-20T22:12:21;3.40;99.90
57719;DHT22;43561;50.090;18.522;2023-12-20T22:22:23;3.40;99.90
57719;DHT22;43561;50.090;18.522;2023-12-20T22:32:25;3.40;99.90
57719;DHT22;43561;50.090;18.522;2023-12-20T22:42:27;3.50;99.90
57719;DHT22;43561;50.090;18.522;2023-12-20T22:52:35;3.50;99.90
57719;DHT22;43561;50.090;18.522;2023-12-20T23:02:39;3.50;99.90
57719;DHT22;43561;50.090;18.522;2023-12-20T23:12:41;3.50;99.90
57719;DHT22;43561;50.090;18.522;2023-12-20T23:22:43;3.60;99.90
57719;DHT22;43561;50.090;18.522;2023-12-20T23:32:45;3.50;99.90
57719;DHT22;43561;50.090;18.522;2023-12-20T23:42:50;3.50;99.90
57719;DHT22;43561;50.090;18.522;2023-12-20T23:52:52;3.40;99.90
